sensor_id;sensor_type;location;lat;lon;timestamp;pressure;altitude;pressure_sealevel;temperature
75773;BMP280;64381;0.000;0.000;2024-03-06T00:01:38;95176.63;;;19.49
75773;BMP280;64381;0.000;0.000;2024-03-06T00:04:03;95178.81;;;19.50
75773;BMP280;64381;0.000;0.000;2024-03-06T00:06:28;95180.31;;;19.51
75773;BMP280;64381;0.000;0.000;2024-03-06T00:08:54;95180.88;;;19.50
75773;BMP280;64381;0.000;0.000;2024-03-06T00:11:19;95179.56;;;19.51
75773;BMP280;64381;0.000;0.000;2024-03-06T00:13:44;95176.25;;;19.52
75773;BMP280;64381;0.000;0.000;2024-03-06T00:16:09;95181.25;;;19.54
75773;BMP280;64381;0.000;0.000;2024-03-06T00:18:34;95184.69;;;19.54
75773;BMP280;64381;0.000;0.000;2024-03-06T00:21:00;95182.13;;;19.56
75773;BMP280;64381;0.000;0.000;2024-03-06T00:23:25;95180.09;;;19.57
75773;BMP280;64381;0.000;0.000;2024-03-06T00:25:50;95180.81;;;19.57
75773;BMP280;64381;0.000;0.000;2024-03-06T00:28:15;95175.84;;;19.56
75773;BMP280;64381;0.000;0.000;2024-03-06T00:30:40;95179.53;;;19.58
75773;BMP280;64381;0.000;0.000;2024-03-06T00:33:06;95179.53;;;19.58
75773;BMP280;64381;0.000;0.000;2024-03-06T00:35:31;95178.22;;;19.59
75773;BMP280;64381;0.000;0.000;2024-03-06T00:37:56;95181.72;;;19.60
75773;BMP280;64381;0.000;0.000;2024-03-06T00:40:21;95181.00;;;19.59
75773;BMP280;64381;0.000;0.000;2024-03-06T00:42:47;95179.69;;;19.60
75773;BMP280;64381;0.000;0.000;2024-03-06T00:45:12;95170.66;;;19.60
75773;BMP280;64381;0.000;0.000;2024-03-06T00:47:37;95178.22;;;19.59
75773;BMP280;64381;0.000;0.000;2024-03-06T00:50:03;95173.41;;;19.60
75773;BMP280;64381;0.000;0.000;2024-03-06T00:52:28;95170.50;;;19.58
75773;BMP280;64381;0.000;0.000;2024-03-06T00:54:53;95173.81;;;19.56
75773;BMP280;64381;0.000;0.000;2024-03-06T00:57:19;95174.97;;;19.53
75773;BMP280;64381;0.000;0.000;2024-03-06T00:59:44;95177.31;;;19.57
75773;BMP280;64381;0.000;0.000;2024-03-06T01:02:09;95177.13;;;19.55
75773;BMP280;64381;0.000;0.000;2024-03-06T01:04:34;95166.06;;;19.55
75773;BMP280;64381;0.000;0.000;2024-03-06T01:06:59;95164.66;;;19.54
75773;BMP280;64381;0.000;0.000;2024-03-06T01:09:25;95171.47;;;19.53
75773;BMP280;64381;0.000;0.000;2024-03-06T01:11:50;95160.41;;;19.53
75773;BMP280;64381;0.000;0.000;2024-03-06T01:14:15;95171.47;;;19.53
75773;BMP280;64381;0.000;0.000;2024-03-06T01:16:41;95159.66;;;19.52
75773;BMP280;64381;0.000;0.000;2024-03-06T01:19:06;95158.91;;;19.52
75773;BMP280;64381;0.000;0.000;2024-03-06T01:21:31;95159.47;;;19.50
75773;BMP280;64381;0.000;0.000;2024-03-06T01:23:56;95164.28;;;19.50
75773;BMP280;64381;0.000;0.000;2024-03-06T01:26:22;95157.44;;;19.51
75773;BMP280;64381;0.000;0.000;2024-03-06T01:28:47;95158.03;;;19.49
75773;BMP280;64381;0.000;0.000;2024-03-06T01:31:12;95161.34;;;19.48
75773;BMP280;64381;0.000;0.000;2024-03-06T01:33:37;95165.56;;;19.49
75773;BMP280;64381;0.000;0.000;2024-03-06T01:36:04;95165.56;;;19.49
75773;BMP280;64381;0.000;0.000;2024-03-06T01:38:29;95154.50;;;19.49
75773;BMP280;64381;0.000;0.000;2024-03-06T01:40:55;95161.34;;;19.48
75773;BMP280;64381;0.000;0.000;2024-03-06T01:43:21;95154.50;;;19.49
75773;BMP280;64381;0.000;0.000;2024-03-06T01:45:48;95156.00;;;19.50
75773;BMP280;64381;0.000;0.000;2024-03-06T01:48:13;95165.56;;;19.49
75773;BMP280;64381;0.000;0.000;2024-03-06T01:50:38;95151.75;;;19.49
75773;BMP280;64381;0.000;0.000;2024-03-06T01:53:03;95153.03;;;19.48
75773;BMP280;64381;0.000;0.000;2024-03-06T01:55:29;95146.22;;;19.49
75773;BMP280;64381;0.000;0.000;2024-03-06T01:57:54;95144.19;;;19.49
75773;BMP280;64381;0.000;0.000;2024-03-06T02:00:19;95141.41;;;19.49
75773;BMP280;64381;0.000;0.000;2024-03-06T02:02:45;95138.81;;;19.51
75773;BMP280;64381;0.000;0.000;2024-03-06T02:05:11;95147.84;;;19.52
75773;BMP280;64381;0.000;0.000;2024-03-06T02:07:38;95148.72;;;19.54
75773;BMP280;64381;0.000;0.000;2024-03-06T02:10:04;95149.47;;;19.55
75773;BMP280;64381;0.000;0.000;2024-03-06T02:12:29;95150.81;;;19.54
75773;BMP280;64381;0.000;0.000;2024-03-06T02:14:54;95149.47;;;19.55
75773;BMP280;64381;0.000;0.000;2024-03-06T02:17:20;95155.59;;;19.53
75773;BMP280;64381;0.000;0.000;2024-03-06T02:19:45;95140.44;;;19.54
75773;BMP280;64381;0.000;0.000;2024-03-06T02:22:11;95148.03;;;19.54
75773;BMP280;64381;0.000;0.000;2024-03-06T02:24:37;95150.81;;;19.54
75773;BMP280;64381;0.000;0.000;2024-03-06T02:27:03;95147.31;;;19.53
75773;BMP280;64381;0.000;0.000;2024-03-06T02:29:28;95150.63;;;19.52
75773;BMP280;64381;0.000;0.000;2024-03-06T02:31:54;95158.91;;;19.52
75773;BMP280;64381;0.000;0.000;2024-03-06T02:34:19;95170.53;;;19.50
75773;BMP280;64381;0.000;0.000;2024-03-06T02:36:44;95173.88;;;19.49
75773;BMP280;64381;0.000;0.000;2024-03-06T02:39:09;95166.31;;;19.49
75773;BMP280;64381;0.000;0.000;2024-03-06T02:41:36;95164.09;;;19.48
75773;BMP280;64381;0.000;0.000;2024-03-06T02:44:01;95170.22;;;19.46
75773;BMP280;64381;0.000;0.000;2024-03-06T02:46:26;95160.81;;;19.42
75773;BMP280;64381;0.000;0.000;2024-03-06T02:48:52;95163.78;;;19.44
75773;BMP280;64381;0.000;0.000;2024-03-06T02:51:20;95167.09;;;19.42
75773;BMP280;64381;0.000;0.000;2024-03-06T02:53:46;95166.34;;;19.42
75773;BMP280;64381;0.000;0.000;2024-03-06T02:56:18;95171.16;;;19.41
75773;BMP280;64381;0.000;0.000;2024-03-06T02:58:43;95170.81;;;19.37
75773;BMP280;64381;0.000;0.000;2024-03-06T03:01:08;95178.41;;;19.37
75773;BMP280;64381;0.000;0.000;2024-03-06T03:03:34;95179.13;;;19.37
75773;BMP280;64381;0.000;0.000;2024-03-06T03:05:59;95175.63;;;19.37
75773;BMP280;64381;0.000;0.000;2024-03-06T03:08:24;95176.19;;;19.35
75773;BMP280;64381;0.000;0.000;2024-03-06T03:10:49;95171.22;;;19.34
75773;BMP280;64381;0.000;0.000;2024-03-06T03:13:15;95165.53;;;19.32
75773;BMP280;64381;0.000;0.000;2024-03-06T03:15:40;95173.84;;;19.32
75773;BMP280;64381;0.000;0.000;2024-03-06T03:18:05;95171.06;;;19.32
75773;BMP280;64381;0.000;0.000;2024-03-06T03:20:30;95173.09;;;19.31
75773;BMP280;64381;0.000;0.000;2024-03-06T03:22:55;95164.59;;;19.29
75773;BMP280;64381;0.000;0.000;2024-03-06T03:25:21;95165.34;;;19.30
75773;BMP280;64381;0.000;0.000;2024-03-06T03:27:46;95164.47;;;19.27
75773;BMP280;64381;0.000;0.000;2024-03-06T03:30:11;95167.97;;;19.28
75773;BMP280;64381;0.000;0.000;2024-03-06T03:32:37;95164.47;;;19.27
75773;BMP280;64381;0.000;0.000;2024-03-06T03:35:05;95158.94;;;19.27
75773;BMP280;64381;0.000;0.000;2024-03-06T03:37:31;95167.03;;;19.25
75773;BMP280;64381;0.000;0.000;2024-03-06T03:39:56;95172.03;;;19.27
75773;BMP280;64381;0.000;0.000;2024-03-06T03:42:22;95167.78;;;19.26
75773;BMP280;64381;0.000;0.000;2024-03-06T03:44:47;95175.34;;;19.25
75773;BMP280;64381;0.000;0.000;2024-03-06T03:47:12;95169.25;;;19.27
75773;BMP280;64381;0.000;0.000;2024-03-06T03:49:38;95175.53;;;19.27
75773;BMP280;64381;0.000;0.000;2024-03-06T03:52:03;95171.44;;;19.28
75773;BMP280;64381;0.000;0.000;2024-03-06T03:54:28;95174.22;;;19.28
75773;BMP280;64381;0.000;0.000;2024-03-06T03:56:53;95174.78;;;19.27
75773;BMP280;64381;0.000;0.000;2024-03-06T03:59:19;95174.22;;;19.28
75773;BMP280;64381;0.000;0.000;2024-03-06T04:01:47;95175.66;;;19.29
75773;BMP280;64381;0.000;0.000;2024-03-06T04:04:13;95186.19;;;19.31
75773;BMP280;64381;0.000;0.000;2024-03-06T04:06:38;95190.97;;;19.30
75773;BMP280;64381;0.000;0.000;2024-03-06T04:09:03;95188.19;;;19.30
75773;BMP280;64381;0.000;0.000;2024-03-06T04:11:28;95182.13;;;19.32
75773;BMP280;64381;0.000;0.000;2024-03-06T04:13:54;95185.44;;;19.30
75773;BMP280;64381;0.000;0.000;2024-03-06T04:16:19;95190.59;;;19.34
75773;BMP280;64381;0.000;0.000;2024-03-06T04:18:44;95190.59;;;19.34
75773;BMP280;64381;0.000;0.000;2024-03-06T04:21:10;95193.34;;;19.34
75773;BMP280;64381;0.000;0.000;2024-03-06T04:23:35;95191.88;;;19.33
75773;BMP280;64381;0.000;0.000;2024-03-06T04:26:00;95196.84;;;19.34
75773;BMP280;64381;0.000;0.000;2024-03-06T04:28:26;95193.94;;;19.32
75773;BMP280;64381;0.000;0.000;2024-03-06T04:30:51;95205.00;;;19.32
75773;BMP280;64381;0.000;0.000;2024-03-06T04:33:16;95205.69;;;19.33
75773;BMP280;64381;0.000;0.000;2024-03-06T04:35:41;95206.28;;;19.31
75773;BMP280;64381;0.000;0.000;2024-03-06T04:38:07;95200.75;;;19.31
75773;BMP280;64381;0.000;0.000;2024-03-06T04:40:33;95206.28;;;19.31
75773;BMP280;64381;0.000;0.000;2024-03-06T04:42:58;95206.81;;;19.30
75773;BMP280;64381;0.000;0.000;2024-03-06T04:45:24;95205.34;;;19.29
75773;BMP280;64381;0.000;0.000;2024-03-06T04:47:49;95212.34;;;19.30
75773;BMP280;64381;0.000;0.000;2024-03-06T04:50:14;95215.69;;;19.28
75773;BMP280;64381;0.000;0.000;2024-03-06T04:52:40;95217.75;;;19.28
75773;BMP280;64381;0.000;0.000;2024-03-06T04:55:06;95221.06;;;19.26
75773;BMP280;64381;0.000;0.000;2024-03-06T04:57:32;95222.53;;;19.27
75773;BMP280;64381;0.000;0.000;2024-03-06T04:59:57;95219.56;;;19.25
75773;BMP280;64381;0.000;0.000;2024-03-06T05:02:23;95225.66;;;19.24
75773;BMP280;64381;0.000;0.000;2024-03-06T05:04:48;95226.97;;;19.23
75773;BMP280;64381;0.000;0.000;2024-03-06T05:07:13;95225.50;;;19.22
75773;BMP280;64381;0.000;0.000;2024-03-06T05:09:38;95232.31;;;19.21
75773;BMP280;64381;0.000;0.000;2024-03-06T05:12:04;95223.50;;;19.22
75773;BMP280;64381;0.000;0.000;2024-03-06T05:14:29;95226.06;;;19.20
75773;BMP280;64381;0.000;0.000;2024-03-06T05:16:54;95234.19;;;19.18
75773;BMP280;64381;0.000;0.000;2024-03-06T05:19:19;95240.63;;;19.21
75773;BMP280;64381;0.000;0.000;2024-03-06T05:21:45;95242.47;;;19.18
75773;BMP280;64381;0.000;0.000;2024-03-06T05:24:10;95243.94;;;19.19
75773;BMP280;64381;0.000;0.000;2024-03-06T05:26:35;95257.03;;;19.19
75773;BMP280;64381;0.000;0.000;2024-03-06T05:29:00;95254.28;;;19.19
75773;BMP280;64381;0.000;0.000;2024-03-06T05:31:25;95251.50;;;19.19
75773;BMP280;64381;0.000;0.000;2024-03-06T05:33:51;95255.00;;;19.19
75773;BMP280;64381;0.000;0.000;2024-03-06T05:36:16;95259.06;;;19.18
75773;BMP280;64381;0.000;0.000;2024-03-06T05:38:41;95266.78;;;19.20
75773;BMP280;64381;0.000;0.000;2024-03-06T05:41:07;95265.34;;;19.19
75773;BMP280;64381;0.000;0.000;2024-03-06T05:43:32;95262.75;;;19.21
75773;BMP280;64381;0.000;0.000;2024-03-06T05:45:57;95265.50;;;19.21
75773;BMP280;64381;0.000;0.000;2024-03-06T05:48:22;95266.25;;;19.21
75773;BMP280;64381;0.000;0.000;2024-03-06T05:50:48;95261.47;;;19.22
75773;BMP280;64381;0.000;0.000;2024-03-06T05:53:13;95263.66;;;19.23
75773;BMP280;64381;0.000;0.000;2024-03-06T05:55:38;95267.72;;;19.22
75773;BMP280;64381;0.000;0.000;2024-03-06T05:58:03;95271.38;;;19.25
75773;BMP280;64381;0.000;0.000;2024-03-06T06:00:29;95276.16;;;19.24
75773;BMP280;64381;0.000;0.000;2024-03-06T06:02:54;95271.38;;;19.25
75773;BMP280;64381;0.000;0.000;2024-03-06T06:05:19;95285.38;;;19.27
75773;BMP280;64381;0.000;0.000;2024-03-06T06:07:44;95274.34;;;19.27
75773;BMP280;64381;0.000;0.000;2024-03-06T06:10:09;95277.84;;;19.27
75773;BMP280;64381;0.000;0.000;2024-03-06T06:12:35;95277.97;;;19.29
75773;BMP280;64381;0.000;0.000;2024-03-06T06:15:00;95283.91;;;19.26
75773;BMP280;64381;0.000;0.000;2024-03-06T06:17:25;95286.69;;;19.26
75773;BMP280;64381;0.000;0.000;2024-03-06T06:19:50;95288.16;;;19.27
75773;BMP280;64381;0.000;0.000;2024-03-06T06:22:16;95292.41;;;19.28
75773;BMP280;64381;0.000;0.000;2024-03-06T06:24:41;95298.66;;;19.28
75773;BMP280;64381;0.000;0.000;2024-03-06T06:27:06;95301.97;;;19.27
75773;BMP280;64381;0.000;0.000;2024-03-06T06:29:31;95308.25;;;19.27
75773;BMP280;64381;0.000;0.000;2024-03-06T06:31:56;95307.50;;;19.27
75773;BMP280;64381;0.000;0.000;2024-03-06T06:34:22;95302.53;;;19.25
75773;BMP280;64381;0.000;0.000;2024-03-06T06:36:47;95316.53;;;19.27
75773;BMP280;64381;0.000;0.000;2024-03-06T06:39:12;95313.03;;;19.27
75773;BMP280;64381;0.000;0.000;2024-03-06T06:41:38;95311.56;;;19.26
75773;BMP280;64381;0.000;0.000;2024-03-06T06:44:03;95317.63;;;19.24
75773;BMP280;64381;0.000;0.000;2024-03-06T06:46:28;95315.44;;;19.23
75773;BMP280;64381;0.000;0.000;2024-03-06T06:48:53;95316.75;;;19.22
75773;BMP280;64381;0.000;0.000;2024-03-06T06:51:18;95321.53;;;19.21
75773;BMP280;64381;0.000;0.000;2024-03-06T06:53:44;95316.19;;;19.23
75773;BMP280;64381;0.000;0.000;2024-03-06T06:56:09;95316.91;;;19.24
75773;BMP280;64381;0.000;0.000;2024-03-06T06:58:34;95318.22;;;19.23
75773;BMP280;64381;0.000;0.000;2024-03-06T07:00:59;95325.06;;;19.22
75773;BMP280;64381;0.000;0.000;2024-03-06T07:03:24;95322.81;;;19.20
75773;BMP280;64381;0.000;0.000;2024-03-06T07:05:50;95326.72;;;19.17
75773;BMP280;64381;0.000;0.000;2024-03-06T07:08:15;95330.94;;;19.18
75773;BMP280;64381;0.000;0.000;2024-03-06T07:10:40;95323.41;;;19.19
75773;BMP280;64381;0.000;0.000;2024-03-06T07:13:05;95332.22;;;19.17
75773;BMP280;64381;0.000;0.000;2024-03-06T07:15:31;95334.25;;;19.17
75773;BMP280;64381;0.000;0.000;2024-03-06T07:17:56;95336.28;;;19.16
75773;BMP280;64381;0.000;0.000;2024-03-06T07:20:21;95329.88;;;19.14
75773;BMP280;64381;0.000;0.000;2024-03-06T07:22:46;95339.66;;;19.15
75773;BMP280;64381;0.000;0.000;2024-03-06T07:25:12;95334.66;;;19.13
75773;BMP280;64381;0.000;0.000;2024-03-06T07:27:37;95338.16;;;19.14
75773;BMP280;64381;0.000;0.000;2024-03-06T07:30:02;95345.88;;;19.15
75773;BMP280;64381;0.000;0.000;2024-03-06T07:32:27;95336.13;;;19.14
75773;BMP280;64381;0.000;0.000;2024-03-06T07:34:53;95338.16;;;19.14
75773;BMP280;64381;0.000;0.000;2024-03-06T07:37:18;95345.19;;;19.15
75773;BMP280;64381;0.000;0.000;2024-03-06T07:39:43;95341.81;;;19.16
75773;BMP280;64381;0.000;0.000;2024-03-06T07:42:08;95342.56;;;19.17
75773;BMP280;64381;0.000;0.000;2024-03-06T07:44:34;95344.78;;;19.18
75773;BMP280;64381;0.000;0.000;2024-03-06T07:46:59;95353.44;;;19.22
75773;BMP280;64381;0.000;0.000;2024-03-06T07:49:24;95343.66;;;19.21
75773;BMP280;64381;0.000;0.000;2024-03-06T07:51:50;95349.53;;;19.25
75773;BMP280;64381;0.000;0.000;2024-03-06T07:54:15;95346.22;;;19.27
75773;BMP280;64381;0.000;0.000;2024-03-06T07:56:40;95354.66;;;19.29
75773;BMP280;64381;0.000;0.000;2024-03-06T07:59:05;95351.91;;;19.29
75773;BMP280;64381;0.000;0.000;2024-03-06T08:01:30;95359.44;;;19.36
75773;BMP280;64381;0.000;0.000;2024-03-06T08:03:56;95356.69;;;19.36
75773;BMP280;64381;0.000;0.000;2024-03-06T08:06:21;95365.72;;;19.36
75773;BMP280;64381;0.000;0.000;2024-03-06T08:08:46;95374.94;;;19.39
75773;BMP280;64381;0.000;0.000;2024-03-06T08:11:11;95379.19;;;19.40
75773;BMP280;64381;0.000;0.000;2024-03-06T08:13:37;95373.06;;;19.41
75773;BMP280;64381;0.000;0.000;2024-03-06T08:16:03;95381.53;;;19.43
75773;BMP280;64381;0.000;0.000;2024-03-06T08:18:29;95385.03;;;19.44
75773;BMP280;64381;0.000;0.000;2024-03-06T08:20:54;95381.53;;;19.43
75773;BMP280;64381;0.000;0.000;2024-03-06T08:23:19;95383.56;;;19.43
75773;BMP280;64381;0.000;0.000;2024-03-06T08:25:45;95392.81;;;19.45
75773;BMP280;64381;0.000;0.000;2024-03-06T08:28:10;95386.31;;;19.43
75773;BMP280;64381;0.000;0.000;2024-03-06T08:30:35;95385.78;;;19.44
75773;BMP280;64381;0.000;0.000;2024-03-06T08:33:00;95391.13;;;19.42
75773;BMP280;64381;0.000;0.000;2024-03-06T08:35:26;95391.84;;;19.43
75773;BMP280;64381;0.000;0.000;2024-03-06T08:37:51;95390.56;;;19.44
75773;BMP280;64381;0.000;0.000;2024-03-06T08:40:17;95389.84;;;19.43
75773;BMP280;64381;0.000;0.000;2024-03-06T08:42:45;95395.38;;;19.43
75773;BMP280;64381;0.000;0.000;2024-03-06T08:45:11;95391.72;;;19.41
75773;BMP280;64381;0.000;0.000;2024-03-06T08:47:36;95400.16;;;19.43
75773;BMP280;64381;0.000;0.000;2024-03-06T08:50:02;95400.16;;;19.43
75773;BMP280;64381;0.000;0.000;2024-03-06T08:52:28;95402.91;;;19.43
75773;BMP280;64381;0.000;0.000;2024-03-06T08:54:53;95402.91;;;19.43
75773;BMP280;64381;0.000;0.000;2024-03-06T08:57:19;95400.91;;;19.43
75773;BMP280;64381;0.000;0.000;2024-03-06T08:59:44;95403.50;;;19.41
75773;BMP280;64381;0.000;0.000;2024-03-06T09:02:18;95402.19;;;19.42
75773;BMP280;64381;0.000;0.000;2024-03-06T09:04:43;95409.03;;;19.41
75773;BMP280;64381;0.000;0.000;2024-03-06T09:07:09;95407.72;;;19.42
75773;BMP280;64381;0.000;0.000;2024-03-06T09:09:35;95418.03;;;19.42
75773;BMP280;64381;0.000;0.000;2024-03-06T09:12:07;95414.72;;;19.43
75773;BMP280;64381;0.000;0.000;2024-03-06T09:14:33;95416.63;;;19.41
75773;BMP280;64381;0.000;0.000;2024-03-06T09:16:58;95418.63;;;19.40
75773;BMP280;64381;0.000;0.000;2024-03-06T09:19:23;95422.84;;;19.41
75773;BMP280;64381;0.000;0.000;2024-03-06T09:21:49;95421.41;;;19.40
75773;BMP280;64381;0.000;0.000;2024-03-06T09:24:14;95434.63;;;19.42
75773;BMP280;64381;0.000;0.000;2024-03-06T09:26:39;95425.06;;;19.43
75773;BMP280;64381;0.000;0.000;2024-03-06T09:29:05;95423.44;;;19.40
75773;BMP280;64381;0.000;0.000;2024-03-06T09:31:30;95432.63;;;19.42
75773;BMP280;64381;0.000;0.000;2024-03-06T09:33:55;95437.59;;;19.44
75773;BMP280;64381;0.000;0.000;2024-03-06T09:36:20;95436.31;;;19.45
75773;BMP280;64381;0.000;0.000;2024-03-06T09:38:47;95436.50;;;19.47
75773;BMP280;64381;0.000;0.000;2024-03-06T09:41:12;95436.50;;;19.47
75773;BMP280;64381;0.000;0.000;2024-03-06T09:43:38;95435.19;;;19.48
75773;BMP280;64381;0.000;0.000;2024-03-06T09:46:03;95437.41;;;19.49
75773;BMP280;64381;0.000;0.000;2024-03-06T09:48:28;95447.16;;;19.50
75773;BMP280;64381;0.000;0.000;2024-03-06T09:50:57;95442.38;;;19.51
75773;BMP280;64381;0.000;0.000;2024-03-06T09:53:25;95439.59;;;19.51
75773;BMP280;64381;0.000;0.000;2024-03-06T09:55:51;95444.59;;;19.52
75773;BMP280;64381;0.000;0.000;2024-03-06T09:58:17;95447.16;;;19.50
75773;BMP280;64381;0.000;0.000;2024-03-06T10:00:42;95448.09;;;19.53
75773;BMP280;64381;0.000;0.000;2024-03-06T10:03:07;95459.31;;;19.55
75773;BMP280;64381;0.000;0.000;2024-03-06T10:05:32;95455.13;;;19.54
75773;BMP280;64381;0.000;0.000;2024-03-06T10:07:58;95458.75;;;19.56
75773;BMP280;64381;0.000;0.000;2024-03-06T10:10:23;95458.03;;;19.56
75773;BMP280;64381;0.000;0.000;2024-03-06T10:12:48;95463.75;;;19.58
75773;BMP280;64381;0.000;0.000;2024-03-06T10:15:14;95459.50;;;19.57
75773;BMP280;64381;0.000;0.000;2024-03-06T10:17:39;95458.56;;;19.54
75773;BMP280;64381;0.000;0.000;2024-03-06T10:20:23;95467.59;;;19.55
75773;BMP280;64381;0.000;0.000;2024-03-06T10:22:53;95466.19;;;19.54
75773;BMP280;64381;0.000;0.000;2024-03-06T10:25:22;95461.19;;;19.52
75773;BMP280;64381;0.000;0.000;2024-03-06T10:28:09;95468.94;;;19.54
75773;BMP280;64381;0.000;0.000;2024-03-06T10:30:40;95472.06;;;19.50
75773;BMP280;64381;0.000;0.000;2024-03-06T10:33:05;95466.50;;;19.50
75773;BMP280;64381;0.000;0.000;2024-03-06T10:35:31;95469.84;;;19.49
75773;BMP280;64381;0.000;0.000;2024-03-06T10:37:56;95471.13;;;19.48
75773;BMP280;64381;0.000;0.000;2024-03-06T10:40:22;95469.13;;;19.48
75773;BMP280;64381;0.000;0.000;2024-03-06T10:42:48;95469.69;;;19.47
75773;BMP280;64381;0.000;0.000;2024-03-06T10:45:14;95479.44;;;19.48
75773;BMP280;64381;0.000;0.000;2024-03-06T10:47:39;95477.97;;;19.47
75773;BMP280;64381;0.000;0.000;2024-03-06T10:50:05;95480.75;;;19.47
75773;BMP280;64381;0.000;0.000;2024-03-06T10:52:32;95480.00;;;19.46
75773;BMP280;64381;0.000;0.000;2024-03-06T10:54:59;95484.78;;;19.46
75773;BMP280;64381;0.000;0.000;2024-03-06T10:57:25;95486.84;;;19.45
75773;BMP280;64381;0.000;0.000;2024-03-06T10:59:52;95486.09;;;19.45
75773;BMP280;64381;0.000;0.000;2024-03-06T11:02:18;95490.91;;;19.44
75773;BMP280;64381;0.000;0.000;2024-03-06T11:04:44;95486.84;;;19.45
75773;BMP280;64381;0.000;0.000;2024-03-06T11:07:09;95486.66;;;19.43
75773;BMP280;64381;0.000;0.000;2024-03-06T11:09:37;95484.09;;;19.45
75773;BMP280;64381;0.000;0.000;2024-03-06T11:12:02;95483.13;;;19.43
75773;BMP280;64381;0.000;0.000;2024-03-06T11:14:30;95484.63;;;19.44
75773;BMP280;64381;0.000;0.000;2024-03-06T11:17:03;95488.88;;;19.45
75773;BMP280;64381;0.000;0.000;2024-03-06T11:19:30;95491.63;;;19.45
75773;BMP280;64381;0.000;0.000;2024-03-06T11:21:55;95489.63;;;19.45
75773;BMP280;64381;0.000;0.000;2024-03-06T11:24:22;95483.34;;;19.45
75773;BMP280;64381;0.000;0.000;2024-03-06T11:29:19;95487.03;;;19.47
75773;BMP280;64381;0.000;0.000;2024-03-06T11:32:07;95487.94;;;19.50
75773;BMP280;64381;0.000;0.000;2024-03-06T11:34:33;95490.69;;;19.50
75773;BMP280;64381;0.000;0.000;2024-03-06T11:36:59;95492.91;;;19.51
75773;BMP280;64381;0.000;0.000;2024-03-06T11:39:28;95488.09;;;19.52
75773;BMP280;64381;0.000;0.000;2024-03-06T11:41:53;95483.84;;;19.51
75773;BMP280;64381;0.000;0.000;2024-03-06T11:44:22;95491.63;;;19.52
75773;BMP280;64381;0.000;0.000;2024-03-06T11:46:48;95489.00;;;19.54
75773;BMP280;64381;0.000;0.000;2024-03-06T11:49:18;95486.97;;;19.55
75773;BMP280;64381;0.000;0.000;2024-03-06T11:51:45;95488.44;;;19.56
75773;BMP280;64381;0.000;0.000;2024-03-06T11:54:10;95491.75;;;19.54
75773;BMP280;64381;0.000;0.000;2024-03-06T11:56:35;95492.69;;;19.57
75773;BMP280;64381;0.000;0.000;2024-03-06T11:59:00;95497.50;;;19.56
75773;BMP280;64381;0.000;0.000;2024-03-06T12:01:26;95500.25;;;19.56
75773;BMP280;64381;0.000;0.000;2024-03-06T12:03:51;95503.78;;;19.57
75773;BMP280;64381;0.000;0.000;2024-03-06T12:06:17;95505.78;;;19.56
75773;BMP280;64381;0.000;0.000;2024-03-06T12:08:42;95503.56;;;19.55
75773;BMP280;64381;0.000;0.000;2024-03-06T12:11:07;95500.81;;;19.55
75773;BMP280;64381;0.000;0.000;2024-03-06T12:13:33;95498.03;;;19.55
75773;BMP280;64381;0.000;0.000;2024-03-06T12:15:58;95506.34;;;19.55
75773;BMP280;64381;0.000;0.000;2024-03-06T12:18:24;95505.44;;;19.52
75773;BMP280;64381;0.000;0.000;2024-03-06T12:20:50;95501.19;;;19.51
75773;BMP280;64381;0.000;0.000;2024-03-06T12:23:22;95510.97;;;19.52
75773;BMP280;64381;0.000;0.000;2024-03-06T12:25:47;95506.56;;;19.49
75773;BMP280;64381;0.000;0.000;2024-03-06T12:28:12;95518.16;;;19.48
75773;BMP280;64381;0.000;0.000;2024-03-06T12:30:42;95516.88;;;19.49
75773;BMP280;64381;0.000;0.000;2024-03-06T12:33:08;95518.91;;;19.48
75773;BMP280;64381;0.000;0.000;2024-03-06T12:35:33;95519.47;;;19.47
75773;BMP280;64381;0.000;0.000;2024-03-06T12:37:58;95525.00;;;19.47
75773;BMP280;64381;0.000;0.000;2024-03-06T12:40:24;95518.72;;;19.46
75773;BMP280;64381;0.000;0.000;2024-03-06T12:42:49;95513.94;;;19.47
75773;BMP280;64381;0.000;0.000;2024-03-06T12:45:15;95522.81;;;19.45
75773;BMP280;64381;0.000;0.000;2024-03-06T12:47:44;95520.03;;;19.45
75773;BMP280;64381;0.000;0.000;2024-03-06T12:50:10;95524.09;;;19.44
75773;BMP280;64381;0.000;0.000;2024-03-06T12:52:35;95521.31;;;19.44
75773;BMP280;64381;0.000;0.000;2024-03-06T12:55:00;95524.84;;;19.45
75773;BMP280;64381;0.000;0.000;2024-03-06T12:57:26;95518.56;;;19.44
75773;BMP280;64381;0.000;0.000;2024-03-06T12:59:52;95519.09;;;19.43
75773;BMP280;64381;0.000;0.000;2024-03-06T13:02:17;95528.88;;;19.44
75773;BMP280;64381;0.000;0.000;2024-03-06T13:04:42;95523.88;;;19.42
75773;BMP280;64381;0.000;0.000;2024-03-06T13:07:07;95524.09;;;19.44
75773;BMP280;64381;0.000;0.000;2024-03-06T13:09:32;95527.59;;;19.45
75773;BMP280;64381;0.000;0.000;2024-03-06T13:11:58;95525.56;;;19.45
75773;BMP280;64381;0.000;0.000;2024-03-06T13:14:23;95525.00;;;19.47
75773;BMP280;64381;0.000;0.000;2024-03-06T13:16:48;95531.09;;;19.45
75773;BMP280;64381;0.000;0.000;2024-03-06T13:19:13;95523.53;;;19.46
75773;BMP280;64381;0.000;0.000;2024-03-06T13:21:38;95525.75;;;19.47
75773;BMP280;64381;0.000;0.000;2024-03-06T13:24:04;95526.47;;;19.48
75773;BMP280;64381;0.000;0.000;2024-03-06T13:26:29;95510.06;;;19.50
75773;BMP280;64381;0.000;0.000;2024-03-06T13:28:54;95513.53;;;19.50
75773;BMP280;64381;0.000;0.000;2024-03-06T13:31:20;95520.56;;;19.51
75773;BMP280;64381;0.000;0.000;2024-03-06T13:33:45;95519.09;;;19.50
75773;BMP280;64381;0.000;0.000;2024-03-06T13:36:10;95521.31;;;19.52
75773;BMP280;64381;0.000;0.000;2024-03-06T13:38:35;95518.00;;;19.53
75773;BMP280;64381;0.000;0.000;2024-03-06T13:41:00;95508.34;;;19.54
75773;BMP280;64381;0.000;0.000;2024-03-06T13:43:26;95515.97;;;19.54
75773;BMP280;64381;0.000;0.000;2024-03-06T13:45:51;95527.19;;;19.56
75773;BMP280;64381;0.000;0.000;2024-03-06T13:48:16;95517.59;;;19.57
75773;BMP280;64381;0.000;0.000;2024-03-06T13:50:45;95519.63;;;19.56
75773;BMP280;64381;0.000;0.000;2024-03-06T13:53:11;95512.06;;;19.57
75773;BMP280;64381;0.000;0.000;2024-03-06T13:55:36;95508.56;;;19.56
75773;BMP280;64381;0.000;0.000;2024-03-06T13:58:02;95509.31;;;19.57
75773;BMP280;64381;0.000;0.000;2024-03-06T14:00:27;95505.59;;;19.54
75773;BMP280;64381;0.000;0.000;2024-03-06T14:02:52;95510.59;;;19.56
75773;BMP280;64381;0.000;0.000;2024-03-06T14:05:17;95506.94;;;19.53
75773;BMP280;64381;0.000;0.000;2024-03-06T14:07:43;95507.69;;;19.54
75773;BMP280;64381;0.000;0.000;2024-03-06T14:10:08;95505.44;;;19.52
75773;BMP280;64381;0.000;0.000;2024-03-06T14:12:34;95509.50;;;19.51
75773;BMP280;64381;0.000;0.000;2024-03-06T14:14:59;95510.78;;;19.50